Maldives Meteorological Service

TAFS

Station TAF
VRMM
VRMM 260500Z 2606/2712 25008KT 9999 FEW018 TEMPO 2612/2618 5000 -TSRA FEW018CB=
VRMH
VRMH 260500Z 2606/2706 26007KT 9999 FEW018 TEMPO 2608/2613 FEW018CB=
VRMK
VRMK 260500Z 2606/2706 27007KT 9999 FEW018TCU TEMPO 2608/2613 FEW018CB=
VRMT
VRMT 260500Z 2606/2706 27007KT 9999 FEW018TCU TEMPO 2613/2618 FEW019CB=
VRMG
VRMG 260500Z 2606/2712 27010KT 9999 FEW018 TEMPO 2613/2619 5000 -TSRA FEW018CB=